createdAt,value
2022-10-18T00:00:18.530Z,100055.81
2022-10-18T00:02:45.245Z,100047.53
2022-10-18T00:05:11.834Z,100040.84
2022-10-18T00:07:38.464Z,100041.03
2022-10-18T00:10:05.735Z,99924.59
2022-10-18T00:12:36.673Z,100132.84
2022-10-18T00:15:06.251Z,100042.41
2022-10-18T00:17:35.697Z,100026.69
2022-10-18T00:20:02.438Z,99998.19
2022-10-18T00:22:29.325Z,99968.53
2022-10-18T00:24:56.329Z,100013.03
2022-10-18T00:27:22.923Z,99945.81
2022-10-18T00:29:53.049Z,99916.91
2022-10-18T00:32:19.689Z,99990.63
2022-10-18T00:34:46.487Z,99987.72
2022-10-18T00:37:13.050Z,99954.94
2022-10-18T00:39:39.794Z,99821.16
2022-10-18T00:42:06.436Z,99981.88
2022-10-18T00:44:33.003Z,99967.69
2022-10-18T00:47:07.202Z,99960.59
2022-10-18T00:49:39.097Z,99939.59
2022-10-18T00:52:28.005Z,99926.66
2022-10-18T00:54:56.604Z,99925.50
2022-10-18T00:57:24.232Z,99892.56
2022-10-18T00:59:51.777Z,99938.25
2022-10-18T01:02:18.717Z,99925.91
2022-10-18T01:04:46.699Z,99892.63
2022-10-18T01:07:25.734Z,99932.81
2022-10-18T01:10:15.245Z,99907.44
2022-10-18T01:13:15.860Z,99874.63
2022-10-18T01:16:00.599Z,99910.22
2022-10-18T01:18:44.333Z,99883.03
2022-10-18T01:21:42.731Z,99900.25
2022-10-18T01:24:40.794Z,99839.41
2022-10-18T01:27:38.013Z,99904.56
2022-10-18T01:30:26.037Z,99890.34
2022-10-18T01:32:56.564Z,99918.34
2022-10-18T01:35:39.268Z,99876.34
2022-10-18T01:38:11.535Z,99873.44
2022-10-18T01:40:41.808Z,99850.66
2022-10-18T01:43:10.253Z,99890.13
2022-10-18T01:45:37.211Z,99791.47
2022-10-18T01:48:04.397Z,99629.31
2022-10-18T01:50:33.495Z,99859.19
2022-10-18T01:53:00.602Z,99854.28
2022-10-18T01:55:45.177Z,99668.94
2022-10-18T01:58:28.739Z,99563.38
2022-10-18T02:01:05.391Z,99715.41
2022-10-18T02:03:36.928Z,99849.09
2022-10-18T02:06:36.646Z,99723.03
2022-10-18T02:09:12.323Z,99791.13
2022-10-18T02:11:41.532Z,99815.94
2022-10-18T02:14:13.697Z,99821.16
2022-10-18T02:16:49.480Z,99745.97
2022-10-18T02:21:58.007Z,99779.94
2022-10-18T02:24:30.055Z,99780.88
2022-10-18T02:26:56.915Z,99700.56
2022-10-18T02:29:23.904Z,99708.88
2022-10-18T02:31:55.570Z,99605.97
2022-10-18T02:34:35.778Z,99681.00
2022-10-18T02:37:03.078Z,99791.84
2022-10-18T02:39:34.159Z,99744.41
2022-10-18T02:42:01.174Z,99719.03
2022-10-18T02:44:27.802Z,99737.38
2022-10-18T02:46:54.587Z,99673.88
2022-10-18T02:49:21.384Z,99770.03
2022-10-18T02:51:47.984Z,99710.44
2022-10-18T02:54:14.848Z,99753.84
2022-10-18T02:56:41.437Z,99735.06
2022-10-18T02:59:08.231Z,99645.13
2022-10-18T03:01:38.584Z,99749.78
2022-10-18T03:04:05.302Z,99748.03
2022-10-18T03:06:32.895Z,99741.13
2022-10-18T03:09:01.748Z,99733.31
2022-10-18T03:11:28.350Z,99694.91
2022-10-18T03:13:55.003Z,99724.03
2022-10-18T03:16:21.667Z,99715.72
2022-10-18T03:18:48.328Z,99718.66
2022-10-18T03:21:15.156Z,99715.66
2022-10-18T03:23:42.655Z,99507.75
2022-10-18T03:26:10.493Z,99685.91
2022-10-18T03:28:37.814Z,99466.50
2022-10-18T03:31:05.359Z,99724.66
2022-10-18T03:33:33.394Z,99718.38
2022-10-18T03:36:00.347Z,99714.00
2022-10-18T03:38:27.379Z,99713.16
2022-10-18T03:40:53.993Z,99708.16
2022-10-18T03:43:20.790Z,99668.69
2022-10-18T03:45:47.548Z,99703.78
2022-10-18T03:48:14.436Z,99679.97
2022-10-18T03:50:41.164Z,99690.00
2022-10-18T03:53:07.787Z,99679.78
2022-10-18T03:55:34.551Z,99484.78
2022-10-18T03:58:01.291Z,99698.16
2022-10-18T04:00:28.059Z,99645.56
2022-10-18T04:02:55.996Z,99649.06
2022-10-18T04:05:28.473Z,99651.66
2022-10-18T04:07:56.138Z,99677.34
2022-10-18T04:10:23.524Z,99621.28
2022-10-18T04:12:51.311Z,99628.97
2022-10-18T04:16:47.464Z,99678.19
2022-10-18T04:19:15.277Z,99347.44
2022-10-18T04:21:43.025Z,99589.69
2022-10-18T04:24:10.344Z,99681.25
2022-10-18T04:26:36.983Z,99643.50
2022-10-18T04:29:03.967Z,99645.25
2022-10-18T04:31:31.233Z,99561.03
2022-10-18T04:33:58.012Z,99658.03
2022-10-18T04:36:25.155Z,99652.94
2022-10-18T04:38:53.203Z,99655.53
2022-10-18T04:41:21.459Z,99653.78
2022-10-18T04:43:49.193Z,99672.13
2022-10-18T04:46:17.658Z,99566.78
2022-10-18T04:48:44.564Z,99667.53
2022-10-18T04:51:11.462Z,99678.69
2022-10-18T04:53:38.244Z,99670.31
2022-10-18T04:56:05.299Z,99666.66
2022-10-18T04:58:32.895Z,99620.84
2022-10-18T05:00:59.966Z,99485.16
2022-10-18T05:03:26.642Z,99592.28
2022-10-18T05:06:01.774Z,99655.88
2022-10-18T05:08:30.693Z,99665.75
2022-10-18T05:10:57.525Z,99652.47
2022-10-18T05:13:24.745Z,99644.75
2022-10-18T05:15:51.848Z,99623.16
2022-10-18T05:18:18.559Z,99656.31
2022-10-18T05:20:45.200Z,99544.50
2022-10-18T05:23:11.856Z,99676.13
2022-10-18T05:25:39.724Z,99667.97
2022-10-18T05:28:15.593Z,99632.78
2022-10-18T05:30:53.061Z,99580.88
2022-10-18T05:33:19.615Z,99657.19
2022-10-18T05:35:46.239Z,99685.84
2022-10-18T05:38:12.971Z,99697.81
2022-10-18T05:40:39.696Z,99692.97
2022-10-18T05:43:06.299Z,99708.72
2022-10-18T05:45:32.958Z,99700.06
2022-10-18T05:47:59.809Z,99697.69
2022-10-18T05:50:26.421Z,99704.44
2022-10-18T05:53:02.698Z,99677.31
2022-10-18T05:55:38.835Z,99702.06
2022-10-18T05:58:06.276Z,99710.84
2022-10-18T06:00:33.084Z,99649.81
2022-10-18T06:03:00.524Z,99640.22
2022-10-18T06:05:27.824Z,99711.59
2022-10-18T06:07:54.485Z,99617.66
2022-10-18T06:10:21.312Z,99670.53
2022-10-18T06:12:48.088Z,99698.53
2022-10-18T06:15:14.837Z,99638.22
2022-10-18T06:17:41.476Z,99683.13
2022-10-18T06:20:08.748Z,99582.66
2022-10-18T06:22:35.439Z,99636.59
2022-10-18T06:25:02.055Z,99647.84
2022-10-18T06:27:29.094Z,99698.34
2022-10-18T06:29:55.945Z,99585.56
2022-10-18T06:33:03.493Z,99685.75
2022-10-18T06:35:30.138Z,99684.47
2022-10-18T06:37:57.784Z,99682.69
2022-10-18T06:40:24.743Z,99543.31
2022-10-18T06:43:00.289Z,99682.09
2022-10-18T06:45:27.398Z,99678.53
2022-10-18T06:47:53.960Z,99550.22
2022-10-18T06:50:20.500Z,99676.50
2022-10-18T06:52:48.858Z,99653.59
2022-10-18T06:55:15.513Z,99678.75
2022-10-18T06:57:42.030Z,99682.56
2022-10-18T07:00:09.310Z,99571.38
2022-10-18T07:02:37.436Z,99390.50
2022-10-18T07:05:04.172Z,99670.91
2022-10-18T07:07:31.501Z,99685.97
2022-10-18T07:09:58.580Z,99616.38
2022-10-18T07:12:25.315Z,99687.75
2022-10-18T07:14:51.937Z,99644.94
2022-10-18T07:17:18.596Z,99555.28
2022-10-18T07:19:45.238Z,99586.50
2022-10-18T07:22:11.884Z,99700.97
2022-10-18T07:24:39.559Z,99695.13
2022-10-18T07:27:06.347Z,99676.34
2022-10-18T07:29:34.208Z,99670.75
2022-10-18T07:32:00.808Z,99668.47
2022-10-18T07:34:28.939Z,99659.91
2022-10-18T07:36:55.646Z,99659.41
2022-10-18T07:39:22.440Z,99660.44
2022-10-18T07:41:49.158Z,99621.91
2022-10-18T07:44:15.864Z,99643.72
2022-10-18T07:46:42.899Z,99571.00
2022-10-18T07:49:09.546Z,99691.47
2022-10-18T07:51:36.218Z,99661.69
2022-10-18T07:54:03.083Z,99649.75
2022-10-18T07:56:29.814Z,99674.00
2022-10-18T07:58:56.678Z,99680.56
2022-10-18T08:01:24.549Z,99668.03
2022-10-18T08:03:52.306Z,99574.13
2022-10-18T08:06:21.597Z,99671.16
2022-10-18T08:08:48.570Z,99670.91
2022-10-18T08:11:20.650Z,99666.81
2022-10-18T08:13:47.574Z,99579.16
2022-10-18T08:16:17.839Z,99677.59
2022-10-18T08:18:44.705Z,99650.75
2022-10-18T08:21:14.624Z,99678.69
2022-10-18T08:23:41.697Z,99659.59
2022-10-18T08:26:10.925Z,99631.28
2022-10-18T08:28:38.476Z,99640.53
2022-10-18T08:31:11.425Z,99617.59
2022-10-18T08:33:39.669Z,99653.78
2022-10-18T08:36:08.752Z,99583.81
2022-10-18T08:38:37.219Z,99638.72
2022-10-18T08:41:45.035Z,99632.09
2022-10-18T08:44:20.420Z,99658.75
2022-10-18T08:46:52.089Z,99646.78
2022-10-18T08:49:28.380Z,99584.38
2022-10-18T08:51:57.543Z,99630.84
2022-10-18T08:54:35.044Z,99652.78
2022-10-18T08:57:04.486Z,99667.63
2022-10-18T08:59:38.435Z,99658.19
2022-10-18T09:02:27.445Z,99648.63
2022-10-18T09:05:21.807Z,99625.66
2022-10-18T09:08:13.142Z,99636.78
2022-10-18T09:10:42.623Z,99641.78
2022-10-18T09:13:32.350Z,99645.25
2022-10-18T09:16:01.034Z,99645.56
2022-10-18T09:18:57.284Z,99642.47
2022-10-18T09:21:39.662Z,99637.72
2022-10-18T09:24:18.090Z,99616.63
2022-10-18T09:26:47.246Z,99575.34
2022-10-18T09:29:40.947Z,99550.53
2022-10-18T09:32:21.150Z,99637.19
2022-10-18T09:34:59.929Z,99636.88
2022-10-18T09:37:30.635Z,99293.13
2022-10-18T09:40:19.052Z,99640.09
2022-10-18T09:43:02.476Z,99617.22
2022-10-18T09:45:33.977Z,99685.63
2022-10-18T09:48:22.932Z,99653.03
2022-10-18T09:51:00.797Z,99657.00
2022-10-18T09:54:01.192Z,99658.88
2022-10-18T09:56:51.475Z,99589.94
2022-10-18T09:59:31.321Z,99664.53
2022-10-18T10:01:58.084Z,99687.13
2022-10-18T10:04:24.669Z,99514.19
2022-10-18T10:06:53.559Z,99666.19
2022-10-18T10:09:31.804Z,99653.66
2022-10-18T10:11:58.841Z,99665.75
2022-10-18T10:14:28.197Z,99656.63
2022-10-18T10:16:58.614Z,99693.81
2022-10-18T10:19:30.660Z,99653.28
2022-10-18T10:22:01.941Z,99646.28
2022-10-18T10:24:37.131Z,99637.75
2022-10-18T10:27:16.829Z,99583.69
2022-10-18T10:29:46.266Z,99644.50
2022-10-18T10:32:15.766Z,99598.91
2022-10-18T10:34:44.742Z,99650.59
2022-10-18T10:37:31.793Z,99646.63
2022-10-18T10:40:18.822Z,99644.81
2022-10-18T10:43:13.012Z,99648.34
2022-10-18T10:45:59.893Z,99647.28
2022-10-18T10:48:32.977Z,99644.81
2022-10-18T10:51:11.069Z,99566.91
2022-10-18T10:53:50.793Z,99614.53
2022-10-18T10:56:23.363Z,99636.72
2022-10-18T10:58:51.394Z,99597.97
2022-10-18T11:01:22.673Z,99623.63
2022-10-18T11:03:52.135Z,99591.22
2022-10-18T11:06:44.653Z,99630.00
2022-10-18T11:09:33.491Z,99629.16
2022-10-18T11:12:13.550Z,99629.28
2022-10-18T11:14:44.275Z,99634.88
2022-10-18T11:17:36.281Z,99627.44
2022-10-18T11:20:16.150Z,99618.78
2022-10-18T11:23:02.530Z,99623.84
2022-10-18T11:25:35.904Z,99318.72
2022-10-18T11:28:27.769Z,99623.47
2022-10-18T11:31:13.140Z,99629.38
2022-10-18T11:34:08.653Z,99623.66
2022-10-18T11:37:15.914Z,99621.63
2022-10-18T11:40:14.434Z,99615.34
2022-10-18T11:42:52.919Z,99609.66
2022-10-18T11:48:36.587Z,99610.28
2022-10-18T11:51:38.732Z,99604.84
2022-10-18T11:54:37.088Z,99608.06
2022-10-18T11:57:24.441Z,99375.50
2022-10-18T12:00:12.297Z,99599.66
2022-10-18T12:03:01.534Z,99637.63
2022-10-18T12:05:29.458Z,99283.94
2022-10-18T12:08:07.439Z,99463.22
2022-10-18T12:10:52.547Z,99618.16
2022-10-18T12:13:43.092Z,99544.75
2022-10-18T12:16:12.299Z,99472.88
2022-10-18T12:19:11.924Z,99572.09
2022-10-18T12:21:39.155Z,99563.75
2022-10-18T12:24:16.180Z,99315.59
2022-10-18T12:26:43.121Z,99562.22
2022-10-18T12:29:27.542Z,99432.06
2022-10-18T12:32:05.841Z,99544.06
2022-10-18T12:34:43.755Z,99565.94
2022-10-18T12:37:26.499Z,99560.66
2022-10-18T12:40:16.788Z,99479.59
2022-10-18T12:42:48.009Z,99501.81
2022-10-18T12:45:35.374Z,99438.78
2022-10-18T12:48:06.908Z,99557.56
2022-10-18T12:50:40.523Z,99548.19
2022-10-18T12:53:10.091Z,99555.31
2022-10-18T12:55:39.103Z,99548.75
2022-10-18T12:58:14.794Z,99546.47
2022-10-18T13:00:51.600Z,99544.69
2022-10-18T13:03:18.187Z,99545.53
2022-10-18T13:05:53.378Z,99555.69
2022-10-18T13:08:41.977Z,99552.50
2022-10-18T13:11:08.744Z,99559.66
2022-10-18T13:13:57.062Z,99555.75
2022-10-18T13:16:36.660Z,99521.03
2022-10-18T13:19:21.493Z,99502.97
2022-10-18T13:22:09.285Z,99592.00
2022-10-18T13:25:05.474Z,99551.53
2022-10-18T13:27:43.268Z,99525.91
2022-10-18T13:30:44.452Z,99533.03
2022-10-18T13:33:31.444Z,99561.03
2022-10-18T13:36:21.642Z,99538.22
2022-10-18T13:39:05.950Z,99242.25
2022-10-18T13:41:56.669Z,99449.81
2022-10-18T13:44:31.849Z,99521.97
2022-10-18T13:47:16.614Z,99545.28
2022-10-18T13:49:59.334Z,99521.59
2022-10-18T13:52:46.874Z,99292.88
2022-10-18T13:55:55.924Z,99479.13
2022-10-18T13:58:49.219Z,99505.59
2022-10-18T14:01:57.068Z,99498.41
2022-10-18T14:05:10.530Z,99506.69
2022-10-18T14:07:44.473Z,99477.88
2022-10-18T14:10:43.421Z,99542.94
2022-10-18T14:13:21.374Z,99491.81
2022-10-18T14:15:51.703Z,99518.59
2022-10-18T14:18:41.276Z,99526.63
2022-10-18T14:21:19.861Z,99488.38
2022-10-18T14:23:48.351Z,99475.13
2022-10-18T14:26:18.011Z,99483.28
2022-10-18T14:28:59.601Z,99486.03
2022-10-18T14:31:27.618Z,99347.66
2022-10-18T14:33:58.330Z,99460.88
2022-10-18T14:36:29.430Z,99467.94
2022-10-18T14:39:07.688Z,99539.91
2022-10-18T14:41:36.564Z,99323.22
2022-10-18T14:44:22.074Z,99471.13
2022-10-18T14:46:59.299Z,99454.34
2022-10-18T14:49:26.478Z,99456.63
2022-10-18T14:51:56.621Z,99360.75
2022-10-18T14:54:36.495Z,99456.50
2022-10-18T14:57:04.703Z,99218.44
2022-10-18T14:59:44.812Z,99163.31
2022-10-18T15:02:17.800Z,99444.50
2022-10-18T15:04:47.124Z,99389.44
2022-10-18T15:07:17.352Z,99427.53
2022-10-18T15:09:45.542Z,99399.09
2022-10-18T15:12:17.892Z,99163.16
2022-10-18T15:14:46.644Z,99419.25
2022-10-18T15:17:28.479Z,99416.75
2022-10-18T15:20:06.235Z,99384.75
2022-10-18T15:22:33.989Z,99393.72
2022-10-18T15:25:12.648Z,99273.16
2022-10-18T15:30:12.513Z,99422.84
2022-10-18T15:32:48.479Z,99336.97
2022-10-18T15:35:30.431Z,99428.63
2022-10-18T15:38:00.265Z,99428.66
2022-10-18T15:40:35.995Z,99433.06
2022-10-18T15:43:24.327Z,99442.72
2022-10-18T15:46:03.233Z,99431.72
2022-10-18T15:48:32.926Z,99430.88
2022-10-18T15:51:04.291Z,99415.53
2022-10-18T15:53:50.169Z,99458.34
2022-10-18T15:56:28.893Z,99437.50
2022-10-18T15:58:57.300Z,99385.59
2022-10-18T16:01:33.315Z,99418.44
2022-10-18T16:04:01.953Z,99417.06
2022-10-18T16:06:28.965Z,99154.25
2022-10-18T16:08:55.958Z,99373.97
2022-10-18T16:11:25.403Z,99338.91
2022-10-18T16:13:56.393Z,99412.38
2022-10-18T16:16:28.936Z,99427.56
2022-10-18T16:18:56.398Z,99408.78
2022-10-18T16:21:26.693Z,99335.00
2022-10-18T16:23:54.046Z,99407.66
2022-10-18T16:26:21.714Z,99414.28
2022-10-18T16:28:49.842Z,99408.50
2022-10-18T16:31:20.984Z,99339.44
2022-10-18T16:33:50.476Z,99264.25
2022-10-18T16:36:24.974Z,98608.72
2022-10-18T16:38:52.100Z,99410.38
2022-10-18T16:41:18.999Z,99323.69
2022-10-18T16:43:47.449Z,99411.06
2022-10-18T16:46:22.748Z,99333.94
2022-10-18T16:48:56.292Z,99403.31
2022-10-18T16:51:23.582Z,99369.91
2022-10-18T16:53:54.548Z,99428.28
2022-10-18T16:56:25.121Z,99442.59
2022-10-18T16:58:52.833Z,99368.53
2022-10-18T17:01:22.505Z,99414.75
2022-10-18T17:03:52.182Z,99358.56
2022-10-18T17:06:28.295Z,99401.47
2022-10-18T17:08:56.235Z,99122.56
2022-10-18T17:11:26.292Z,99333.56
2022-10-18T17:13:53.041Z,99395.72
2022-10-18T17:18:58.197Z,99389.91
2022-10-18T17:21:29.718Z,99380.41
2022-10-18T17:24:01.183Z,99374.06
2022-10-18T17:26:30.192Z,99375.84
2022-10-18T17:29:01.734Z,99373.50
2022-10-18T17:31:30.204Z,99353.78
2022-10-18T17:33:58.672Z,99363.16
2022-10-18T17:39:11.024Z,99319.50
2022-10-18T17:41:37.696Z,99305.09
2022-10-18T17:44:07.462Z,99285.75
2022-10-18T17:46:35.432Z,99350.19
2022-10-18T17:49:02.324Z,99361.22
2022-10-18T17:51:32.139Z,99254.75
2022-10-18T17:53:58.763Z,99348.38
2022-10-18T17:56:31.009Z,99348.50
2022-10-18T17:58:57.620Z,99002.22
2022-10-18T18:01:24.857Z,99326.56
2022-10-18T18:03:57.507Z,99366.09
2022-10-18T18:06:31.034Z,99312.34
2022-10-18T18:08:59.495Z,99307.53
2022-10-18T18:11:26.711Z,99199.53
2022-10-18T18:13:55.913Z,99286.75
2022-10-18T18:16:26.031Z,99275.59
2022-10-18T18:18:56.387Z,99266.38
2022-10-18T18:21:23.939Z,99261.16
2022-10-18T18:23:52.834Z,99148.31
2022-10-18T18:26:20.952Z,99218.38
2022-10-18T18:28:48.033Z,99113.84
2022-10-18T18:31:17.773Z,99307.94
2022-10-18T18:33:45.071Z,99273.78
2022-10-18T18:36:12.564Z,99272.13
2022-10-18T18:38:42.759Z,99187.50
2022-10-18T18:41:12.858Z,99307.94
2022-10-18T18:43:43.024Z,99271.13
2022-10-18T18:46:11.181Z,99273.03
2022-10-18T18:48:40.220Z,99207.16
2022-10-18T18:51:10.806Z,99317.56
2022-10-18T18:53:39.900Z,99165.31
2022-10-18T18:56:11.700Z,99302.00
2022-10-18T18:58:39.458Z,99250.88
2022-10-18T19:01:12.480Z,99263.66
2022-10-18T19:03:40.332Z,99266.78
2022-10-18T19:06:15.707Z,99277.56
2022-10-18T19:08:46.320Z,99249.56
2022-10-18T19:11:18.753Z,99306.25
2022-10-18T19:13:45.907Z,99238.91
2022-10-18T19:16:31.924Z,99321.28
2022-10-18T19:19:16.901Z,99268.41
2022-10-18T19:21:48.193Z,99320.13
2022-10-18T19:24:16.093Z,99340.94
2022-10-18T19:26:45.821Z,99340.50
2022-10-18T19:29:23.222Z,99339.38
2022-10-18T19:31:51.259Z,99316.19
2022-10-18T19:34:19.324Z,99350.84
2022-10-18T19:36:48.152Z,99346.69
2022-10-18T19:39:19.765Z,99331.63
2022-10-18T19:41:49.443Z,99338.50
2022-10-18T19:44:21.997Z,99351.94
2022-10-18T19:46:49.102Z,99218.16
2022-10-18T19:49:16.804Z,99232.63
2022-10-18T19:51:43.641Z,99260.47
2022-10-18T19:54:12.137Z,99309.38
2022-10-18T19:56:38.869Z,99294.78
2022-10-18T19:59:05.555Z,99285.56
2022-10-18T20:01:35.354Z,99236.66
2022-10-18T20:04:04.424Z,99164.25
2022-10-18T20:06:31.896Z,99161.41
2022-10-18T20:08:58.618Z,99175.50
2022-10-18T20:11:27.594Z,99130.34
2022-10-18T20:13:58.228Z,99304.91
2022-10-18T20:16:30.452Z,99290.09
2022-10-18T20:19:07.529Z,99279.78
2022-10-18T20:21:37.297Z,99293.44
2022-10-18T20:24:05.501Z,99267.81
2022-10-18T20:26:32.879Z,99050.09
2022-10-18T20:29:00.045Z,99277.06
2022-10-18T20:31:32.306Z,99238.28
2022-10-18T20:34:01.409Z,99265.34
2022-10-18T20:36:30.210Z,99275.28
2022-10-18T20:38:57.522Z,99175.03
2022-10-18T20:41:30.542Z,99295.78
2022-10-18T20:44:00.068Z,99001.72
2022-10-18T20:46:31.562Z,99167.59
2022-10-18T20:48:58.592Z,99237.84
2022-10-18T20:51:25.726Z,99241.97
2022-10-18T20:53:53.531Z,99200.53
2022-10-18T20:56:26.701Z,99234.97
2022-10-18T20:58:57.833Z,99175.75
2022-10-18T21:01:29.824Z,99214.13
2022-10-18T21:03:58.517Z,99097.78
2022-10-18T21:06:27.638Z,99221.94
2022-10-18T21:08:56.474Z,99156.19
2022-10-18T21:11:24.602Z,99213.66
2022-10-18T21:13:52.998Z,99209.63
2022-10-18T21:16:19.964Z,99016.22
2022-10-18T21:18:46.847Z,99108.81
2022-10-18T21:21:19.567Z,99207.03
2022-10-18T21:23:47.344Z,99169.13
2022-10-18T21:26:26.305Z,99230.38
2022-10-18T21:28:58.600Z,99210.25
2022-10-18T21:31:27.988Z,99215.34
2022-10-18T21:33:59.873Z,99172.78
2022-10-18T21:36:30.956Z,99197.09
2022-10-18T21:38:57.619Z,99074.63
2022-10-18T21:41:24.523Z,99172.09
2022-10-18T21:43:54.637Z,99180.94
2022-10-18T21:46:22.238Z,99167.97
2022-10-18T21:48:51.937Z,99173.63
2022-10-18T21:51:21.435Z,99157.41
2022-10-18T21:53:50.560Z,99147.13
2022-10-18T21:56:22.509Z,99149.97
2022-10-18T21:58:52.676Z,99124.22
2022-10-18T22:01:20.515Z,99130.28
2022-10-18T22:03:49.697Z,99090.59
2022-10-18T22:06:17.221Z,99120.94
2022-10-18T22:08:55.376Z,99124.63
2022-10-18T22:11:30.715Z,99030.50
2022-10-18T22:13:57.744Z,99110.50
2022-10-18T22:16:24.988Z,99086.56
2022-10-18T22:18:52.662Z,99115.81
2022-10-18T22:21:20.614Z,99118.75
2022-10-18T22:23:50.068Z,99042.13
2022-10-18T22:26:20.185Z,99110.25
2022-10-18T22:28:47.457Z,99101.59
2022-10-18T22:31:17.524Z,99122.19
2022-10-18T22:33:45.267Z,99124.09
2022-10-18T22:36:12.874Z,99088.56
2022-10-18T22:38:39.640Z,99099.69
2022-10-18T22:41:08.241Z,99083.13
2022-10-18T22:43:35.132Z,99058.84
2022-10-18T22:46:03.815Z,99066.88
2022-10-18T22:48:30.991Z,99106.06
2022-10-18T22:50:57.716Z,99104.91
2022-10-18T22:53:24.436Z,99018.94
2022-10-18T22:55:51.788Z,98992.53
2022-10-18T22:58:20.232Z,98958.22
2022-10-18T23:00:47.152Z,99058.59
2022-10-18T23:03:18.349Z,99079.78
2022-10-18T23:05:46.791Z,98844.63
2022-10-18T23:08:14.472Z,99068.22
2022-10-18T23:10:42.526Z,98912.75
2022-10-18T23:13:10.791Z,99047.22
2022-10-18T23:15:40.439Z,98939.69
2022-10-18T23:18:07.081Z,99119.72
2022-10-18T23:20:33.765Z,98909.06
2022-10-18T23:23:00.304Z,99075.63
2022-10-18T23:25:27.307Z,98860.53
2022-10-18T23:27:54.426Z,99065.69
2022-10-18T23:30:21.020Z,99067.25
2022-10-18T23:32:47.702Z,99061.09
2022-10-18T23:35:14.366Z,99042.50
2022-10-18T23:37:40.999Z,99044.06
2022-10-18T23:40:08.460Z,98864.16
2022-10-18T23:42:35.094Z,99053.53
2022-10-18T23:45:01.869Z,98861.81
2022-10-18T23:47:28.710Z,99025.13
2022-10-18T23:49:57.253Z,98939.19
2022-10-18T23:52:24.796Z,99034.59
2022-10-18T23:54:51.417Z,99033.75
2022-10-18T23:57:18.114Z,98907.97
2022-10-18T23:59:44.718Z,98913.03
